sensor_id;sensor_type;location;lat;lon;timestamp;temperature;humidity
20081;DHT22;10200;49.232;9.222;2023-08-08T00:00:35;16.50;97.50
20081;DHT22;10200;49.232;9.222;2023-08-08T00:03:01;16.50;97.50
20081;DHT22;10200;49.232;9.222;2023-08-08T00:05:27;16.50;97.50
20081;DHT22;10200;49.232;9.222;2023-08-08T00:07:52;16.50;97.40
20081;DHT22;10200;49.232;9.222;2023-08-08T00:10:18;16.50;97.40
20081;DHT22;10200;49.232;9.222;2023-08-08T00:12:44;16.50;97.50
20081;DHT22;10200;49.232;9.222;2023-08-08T00:15:09;16.50;97.40
20081;DHT22;10200;49.232;9.222;2023-08-08T00:17:35;16.50;97.40
20081;DHT22;10200;49.232;9.222;2023-08-08T00:20:01;16.50;97.40
20081;DHT22;10200;49.232;9.222;2023-08-08T00:22:27;16.40;97.20
20081;DHT22;10200;49.232;9.222;2023-08-08T00:24:52;16.50;97.50
20081;DHT22;10200;49.232;9.222;2023-08-08T00:27:18;16.30;97.50
20081;DHT22;10200;49.232;9.222;2023-08-08T00:29:43;16.30;97.60
20081;DHT22;10200;49.232;9.222;2023-08-08T00:32:10;16.20;97.70
20081;DHT22;10200;49.232;9.222;2023-08-08T00:34:36;16.30;97.90
20081;DHT22;10200;49.232;9.222;2023-08-08T00:37:02;16.20;98.30
20081;DHT22;10200;49.232;9.222;2023-08-08T00:39:27;16.20;98.00
20081;DHT22;10200;49.232;9.222;2023-08-08T00:41:53;16.20;98.10
20081;DHT22;10200;49.232;9.222;2023-08-08T00:44:18;16.20;98.20
20081;DHT22;10200;49.232;9.222;2023-08-08T00:46:44;16.20;98.40
20081;DHT22;10200;49.232;9.222;2023-08-08T00:49:10;16.00;98.30
20081;DHT22;10200;49.232;9.222;2023-08-08T00:51:35;16.10;98.60
20081;DHT22;10200;49.232;9.222;2023-08-08T00:54:01;16.10;98.80
20081;DHT22;10200;49.232;9.222;2023-08-08T00:56:27;16.00;98.90
20081;DHT22;10200;49.232;9.222;2023-08-08T00:58:53;16.00;99.00
20081;DHT22;10200;49.232;9.222;2023-08-08T01:01:19;16.00;99.20
20081;DHT22;10200;49.232;9.222;2023-08-08T01:03:44;16.00;99.40
20081;DHT22;10200;49.232;9.222;2023-08-08T01:06:31;15.90;99.60
20081;DHT22;10200;49.232;9.222;2023-08-08T01:09:08;15.90;99.90
20081;DHT22;10200;49.232;9.222;2023-08-08T01:11:36;15.80;99.90
20081;DHT22;10200;49.232;9.222;2023-08-08T01:14:02;15.80;99.90
20081;DHT22;10200;49.232;9.222;2023-08-08T01:16:31;15.70;99.90
20081;DHT22;10200;49.232;9.222;2023-08-08T01:18:58;15.60;99.90
20081;DHT22;10200;49.232;9.222;2023-08-08T01:21:27;15.60;99.90
20081;DHT22;10200;49.232;9.222;2023-08-08T01:24:18;15.50;99.90
20081;DHT22;10200;49.232;9.222;2023-08-08T01:26:45;15.40;99.90
20081;DHT22;10200;49.232;9.222;2023-08-08T01:29:11;15.40;99.90
20081;DHT22;10200;49.232;9.222;2023-08-08T01:31:36;15.30;99.90
20081;DHT22;10200;49.232;9.222;2023-08-08T01:34:02;15.20;99.90
20081;DHT22;10200;49.232;9.222;2023-08-08T01:36:35;15.20;99.90
20081;DHT22;10200;49.232;9.222;2023-08-08T01:39:05;15.10;99.90
20081;DHT22;10200;49.232;9.222;2023-08-08T01:41:38;15.10;99.90
20081;DHT22;10200;49.232;9.222;2023-08-08T01:44:05;15.10;99.90
20081;DHT22;10200;49.232;9.222;2023-08-08T01:46:32;15.10;99.90
20081;DHT22;10200;49.232;9.222;2023-08-08T01:48:58;15.10;99.90
20081;DHT22;10200;49.232;9.222;2023-08-08T01:51:25;15.10;99.90
20081;DHT22;10200;49.232;9.222;2023-08-08T01:53:51;15.10;99.90
20081;DHT22;10200;49.232;9.222;2023-08-08T01:56:17;15.00;99.90
20081;DHT22;10200;49.232;9.222;2023-08-08T01:58:43;15.00;99.90
20081;DHT22;10200;49.232;9.222;2023-08-08T02:01:08;15.00;99.90
20081;DHT22;10200;49.232;9.222;2023-08-08T02:03:34;15.00;99.90
20081;DHT22;10200;49.232;9.222;2023-08-08T02:05:59;15.00;99.90
20081;DHT22;10200;49.232;9.222;2023-08-08T02:08:25;15.00;99.90
20081;DHT22;10200;49.232;9.222;2023-08-08T02:10:51;15.00;99.90
20081;DHT22;10200;49.232;9.222;2023-08-08T02:13:16;15.00;99.90
20081;DHT22;10200;49.232;9.222;2023-08-08T02:15:42;15.00;99.90
20081;DHT22;10200;49.232;9.222;2023-08-08T02:18:07;15.00;99.90
20081;DHT22;10200;49.232;9.222;2023-08-08T02:20:35;15.00;99.90
20081;DHT22;10200;49.232;9.222;2023-08-08T02:23:00;14.90;99.90
20081;DHT22;10200;49.232;9.222;2023-08-08T02:25:26;14.90;99.90
20081;DHT22;10200;49.232;9.222;2023-08-08T02:27:51;14.80;99.90
20081;DHT22;10200;49.232;9.222;2023-08-08T02:30:17;14.80;99.90
20081;DHT22;10200;49.232;9.222;2023-08-08T02:32:42;14.80;99.90
20081;DHT22;10200;49.232;9.222;2023-08-08T02:35:08;14.80;99.90
20081;DHT22;10200;49.232;9.222;2023-08-08T02:37:34;14.70;99.90
20081;DHT22;10200;49.232;9.222;2023-08-08T02:40:00;14.60;99.90
20081;DHT22;10200;49.232;9.222;2023-08-08T02:42:25;14.60;99.90
20081;DHT22;10200;49.232;9.222;2023-08-08T02:44:51;14.50;99.90
20081;DHT22;10200;49.232;9.222;2023-08-08T02:47:17;14.60;99.90
20081;DHT22;10200;49.232;9.222;2023-08-08T02:49:42;14.50;99.90
20081;DHT22;10200;49.232;9.222;2023-08-08T02:52:08;14.50;99.90
20081;DHT22;10200;49.232;9.222;2023-08-08T02:54:33;14.50;99.90
20081;DHT22;10200;49.232;9.222;2023-08-08T02:56:59;14.50;99.90
20081;DHT22;10200;49.232;9.222;2023-08-08T02:59:26;14.40;99.90
20081;DHT22;10200;49.232;9.222;2023-08-08T03:01:51;14.40;99.90
20081;DHT22;10200;49.232;9.222;2023-08-08T03:04:17;14.40;99.90
20081;DHT22;10200;49.232;9.222;2023-08-08T03:06:43;14.30;99.90
20081;DHT22;10200;49.232;9.222;2023-08-08T03:09:09;14.40;99.90
20081;DHT22;10200;49.232;9.222;2023-08-08T03:11:34;14.30;99.90
20081;DHT22;10200;49.232;9.222;2023-08-08T03:14:00;14.30;99.90
20081;DHT22;10200;49.232;9.222;2023-08-08T03:16:25;14.30;99.90
20081;DHT22;10200;49.232;9.222;2023-08-08T03:18:51;14.30;99.90
20081;DHT22;10200;49.232;9.222;2023-08-08T03:21:16;14.20;99.90
20081;DHT22;10200;49.232;9.222;2023-08-08T03:23:43;14.30;99.90
20081;DHT22;10200;49.232;9.222;2023-08-08T03:26:09;14.20;99.90
20081;DHT22;10200;49.232;9.222;2023-08-08T03:28:35;14.30;99.90
20081;DHT22;10200;49.232;9.222;2023-08-08T03:31:00;14.20;99.90
20081;DHT22;10200;49.232;9.222;2023-08-08T03:33:31;14.20;99.90
20081;DHT22;10200;49.232;9.222;2023-08-08T03:35:56;14.10;99.90
20081;DHT22;10200;49.232;9.222;2023-08-08T03:38:22;14.10;99.90
20081;DHT22;10200;49.232;9.222;2023-08-08T03:40:48;14.10;99.90
20081;DHT22;10200;49.232;9.222;2023-08-08T03:43:14;14.10;99.90
20081;DHT22;10200;49.232;9.222;2023-08-08T03:45:39;14.00;99.90
20081;DHT22;10200;49.232;9.222;2023-08-08T03:48:05;14.00;99.90
20081;DHT22;10200;49.232;9.222;2023-08-08T03:50:31;13.90;99.90
20081;DHT22;10200;49.232;9.222;2023-08-08T03:52:57;13.90;99.90
20081;DHT22;10200;49.232;9.222;2023-08-08T03:55:23;13.80;99.90
20081;DHT22;10200;49.232;9.222;2023-08-08T03:57:49;13.70;99.90
20081;DHT22;10200;49.232;9.222;2023-08-08T04:00:15;13.80;99.90
20081;DHT22;10200;49.232;9.222;2023-08-08T04:02:41;13.80;99.90
20081;DHT22;10200;49.232;9.222;2023-08-08T04:05:07;13.70;99.90
20081;DHT22;10200;49.232;9.222;2023-08-08T04:07:33;13.70;99.90
20081;DHT22;10200;49.232;9.222;2023-08-08T04:09:59;13.60;99.90
20081;DHT22;10200;49.232;9.222;2023-08-08T04:12:24;13.60;99.90
20081;DHT22;10200;49.232;9.222;2023-08-08T04:14:50;13.60;99.90
20081;DHT22;10200;49.232;9.222;2023-08-08T04:17:15;13.60;99.90
20081;DHT22;10200;49.232;9.222;2023-08-08T04:19:41;13.50;99.90
20081;DHT22;10200;49.232;9.222;2023-08-08T04:22:07;13.60;99.90
20081;DHT22;10200;49.232;9.222;2023-08-08T04:24:32;13.60;99.90
20081;DHT22;10200;49.232;9.222;2023-08-08T04:26:58;13.60;99.90
20081;DHT22;10200;49.232;9.222;2023-08-08T04:29:23;13.60;99.90
20081;DHT22;10200;49.232;9.222;2023-08-08T04:31:49;13.60;99.90
20081;DHT22;10200;49.232;9.222;2023-08-08T04:34:14;13.50;99.90
20081;DHT22;10200;49.232;9.222;2023-08-08T04:36:40;13.50;99.90
20081;DHT22;10200;49.232;9.222;2023-08-08T04:39:06;13.50;99.90
20081;DHT22;10200;49.232;9.222;2023-08-08T04:41:31;13.50;99.90
20081;DHT22;10200;49.232;9.222;2023-08-08T04:43:57;13.60;99.90
20081;DHT22;10200;49.232;9.222;2023-08-08T04:46:24;13.70;99.90
20081;DHT22;10200;49.232;9.222;2023-08-08T04:48:49;13.60;99.90
20081;DHT22;10200;49.232;9.222;2023-08-08T04:51:15;13.90;99.90
20081;DHT22;10200;49.232;9.222;2023-08-08T04:53:40;13.70;99.90
20081;DHT22;10200;49.232;9.222;2023-08-08T04:56:06;13.80;99.90
20081;DHT22;10200;49.232;9.222;2023-08-08T04:58:31;14.00;99.90
20081;DHT22;10200;49.232;9.222;2023-08-08T05:00:57;14.00;99.90
20081;DHT22;10200;49.232;9.222;2023-08-08T05:03:23;14.10;99.90
20081;DHT22;10200;49.232;9.222;2023-08-08T05:05:48;14.20;99.90
20081;DHT22;10200;49.232;9.222;2023-08-08T05:08:14;14.40;99.90
20081;DHT22;10200;49.232;9.222;2023-08-08T05:10:40;14.70;99.90
20081;DHT22;10200;49.232;9.222;2023-08-08T05:13:05;15.10;99.90
20081;DHT22;10200;49.232;9.222;2023-08-08T05:15:31;15.50;99.90
20081;DHT22;10200;49.232;9.222;2023-08-08T05:17:56;15.70;99.90
20081;DHT22;10200;49.232;9.222;2023-08-08T05:20:22;16.10;99.90
20081;DHT22;10200;49.232;9.222;2023-08-08T05:22:48;16.30;99.90
20081;DHT22;10200;49.232;9.222;2023-08-08T05:25:14;16.40;99.90
20081;DHT22;10200;49.232;9.222;2023-08-08T05:27:41;16.40;99.90
20081;DHT22;10200;49.232;9.222;2023-08-08T05:30:07;16.40;99.90
20081;DHT22;10200;49.232;9.222;2023-08-08T05:32:32;16.20;99.90
20081;DHT22;10200;49.232;9.222;2023-08-08T05:34:58;16.30;99.90
20081;DHT22;10200;49.232;9.222;2023-08-08T05:37:25;16.80;99.90
20081;DHT22;10200;49.232;9.222;2023-08-08T05:39:51;17.20;99.90
20081;DHT22;10200;49.232;9.222;2023-08-08T05:42:17;17.80;99.90
20081;DHT22;10200;49.232;9.222;2023-08-08T05:44:43;18.30;99.90
20081;DHT22;10200;49.232;9.222;2023-08-08T05:47:10;18.50;99.90
20081;DHT22;10200;49.232;9.222;2023-08-08T05:49:39;18.80;99.90
20081;DHT22;10200;49.232;9.222;2023-08-08T05:52:07;19.10;99.10
20081;DHT22;10200;49.232;9.222;2023-08-08T05:54:33;19.50;98.70
20081;DHT22;10200;49.232;9.222;2023-08-08T05:57:02;20.00;96.20
20081;DHT22;10200;49.232;9.222;2023-08-08T05:59:30;21.10;99.90
20081;DHT22;10200;49.232;9.222;2023-08-08T06:01:55;21.00;92.80
20081;DHT22;10200;49.232;9.222;2023-08-08T06:04:21;22.00;86.60
20081;DHT22;10200;49.232;9.222;2023-08-08T06:06:48;22.10;87.10
20081;DHT22;10200;49.232;9.222;2023-08-08T06:09:15;22.90;82.90
20081;DHT22;10200;49.232;9.222;2023-08-08T06:11:40;23.70;79.60
20081;DHT22;10200;49.232;9.222;2023-08-08T06:14:06;24.50;73.80
20081;DHT22;10200;49.232;9.222;2023-08-08T06:16:32;25.30;68.90
20081;DHT22;10200;49.232;9.222;2023-08-08T06:18:57;25.90;64.50
20081;DHT22;10200;49.232;9.222;2023-08-08T06:21:23;26.00;61.20
20081;DHT22;10200;49.232;9.222;2023-08-08T06:23:49;26.20;59.90
20081;DHT22;10200;49.232;9.222;2023-08-08T06:26:15;26.40;58.80
20081;DHT22;10200;49.232;9.222;2023-08-08T06:28:40;26.70;57.80
20081;DHT22;10200;49.232;9.222;2023-08-08T06:31:06;26.70;56.00
20081;DHT22;10200;49.232;9.222;2023-08-08T06:33:32;26.70;56.20
20081;DHT22;10200;49.232;9.222;2023-08-08T06:35:58;26.70;55.70
20081;DHT22;10200;49.232;9.222;2023-08-08T06:38:23;26.50;55.40
20081;DHT22;10200;49.232;9.222;2023-08-08T06:40:49;26.60;55.70
20081;DHT22;10200;49.232;9.222;2023-08-08T06:43:15;26.50;55.10
20081;DHT22;10200;49.232;9.222;2023-08-08T06:45:40;26.30;55.80
20081;DHT22;10200;49.232;9.222;2023-08-08T06:48:06;26.20;56.00
20081;DHT22;10200;49.232;9.222;2023-08-08T06:50:31;26.10;56.00
20081;DHT22;10200;49.232;9.222;2023-08-08T06:52:57;26.00;55.70
20081;DHT22;10200;49.232;9.222;2023-08-08T06:55:23;26.00;56.10
20081;DHT22;10200;49.232;9.222;2023-08-08T06:57:49;25.90;55.70
20081;DHT22;10200;49.232;9.222;2023-08-08T07:00:15;25.80;55.90
20081;DHT22;10200;49.232;9.222;2023-08-08T07:02:41;25.90;56.00
20081;DHT22;10200;49.232;9.222;2023-08-08T07:05:07;25.80;55.90
20081;DHT22;10200;49.232;9.222;2023-08-08T07:07:33;25.60;55.60
20081;DHT22;10200;49.232;9.222;2023-08-08T07:10:00;25.50;56.10
20081;DHT22;10200;49.232;9.222;2023-08-08T07:12:26;25.30;55.90
20081;DHT22;10200;49.232;9.222;2023-08-08T07:14:51;25.00;56.20
20081;DHT22;10200;49.232;9.222;2023-08-08T07:17:17;24.80;57.20
20081;DHT22;10200;49.232;9.222;2023-08-08T07:19:42;24.90;57.90
20081;DHT22;10200;49.232;9.222;2023-08-08T07:22:08;25.30;58.30
20081;DHT22;10200;49.232;9.222;2023-08-08T07:24:34;25.50;56.10
20081;DHT22;10200;49.232;9.222;2023-08-08T07:27:00;25.40;56.00
20081;DHT22;10200;49.232;9.222;2023-08-08T07:29:26;25.20;56.30
20081;DHT22;10200;49.232;9.222;2023-08-08T07:31:55;25.40;57.20
20081;DHT22;10200;49.232;9.222;2023-08-08T07:34:21;25.70;56.20
20081;DHT22;10200;49.232;9.222;2023-08-08T07:36:47;25.40;54.70
20081;DHT22;10200;49.232;9.222;2023-08-08T07:39:13;25.30;54.70
20081;DHT22;10200;49.232;9.222;2023-08-08T07:41:39;25.10;56.00
20081;DHT22;10200;49.232;9.222;2023-08-08T07:44:05;25.30;56.80
20081;DHT22;10200;49.232;9.222;2023-08-08T07:46:31;25.50;55.70
20081;DHT22;10200;49.232;9.222;2023-08-08T07:48:57;25.70;54.90
20081;DHT22;10200;49.232;9.222;2023-08-08T07:51:27;25.90;54.20
20081;DHT22;10200;49.232;9.222;2023-08-08T07:53:53;26.00;53.70
20081;DHT22;10200;49.232;9.222;2023-08-08T07:56:19;26.00;53.80
20081;DHT22;10200;49.232;9.222;2023-08-08T07:58:44;26.00;54.10
20081;DHT22;10200;49.232;9.222;2023-08-08T08:01:10;25.80;54.30
20081;DHT22;10200;49.232;9.222;2023-08-08T08:03:37;25.80;53.50
20081;DHT22;10200;49.232;9.222;2023-08-08T08:06:03;25.50;52.90
20081;DHT22;10200;49.232;9.222;2023-08-08T08:08:28;25.50;53.60
20081;DHT22;10200;49.232;9.222;2023-08-08T08:10:54;25.30;53.40
20081;DHT22;10200;49.232;9.222;2023-08-08T08:13:20;25.30;53.50
20081;DHT22;10200;49.232;9.222;2023-08-08T08:15:46;25.00;53.90
20081;DHT22;10200;49.232;9.222;2023-08-08T08:18:11;24.90;55.80
20081;DHT22;10200;49.232;9.222;2023-08-08T08:20:39;24.90;55.80
20081;DHT22;10200;49.232;9.222;2023-08-08T08:23:05;24.90;55.20
20081;DHT22;10200;49.232;9.222;2023-08-08T08:25:30;24.70;55.00
20081;DHT22;10200;49.232;9.222;2023-08-08T08:27:57;24.40;55.60
20081;DHT22;10200;49.232;9.222;2023-08-08T08:30:23;24.30;56.10
20081;DHT22;10200;49.232;9.222;2023-08-08T08:32:51;24.10;56.50
20081;DHT22;10200;49.232;9.222;2023-08-08T08:35:17;23.90;56.40
20081;DHT22;10200;49.232;9.222;2023-08-08T08:37:43;23.90;57.90
20081;DHT22;10200;49.232;9.222;2023-08-08T08:40:09;24.10;57.70
20081;DHT22;10200;49.232;9.222;2023-08-08T08:42:36;24.10;56.60
20081;DHT22;10200;49.232;9.222;2023-08-08T08:45:04;24.10;57.60
20081;DHT22;10200;49.232;9.222;2023-08-08T08:47:31;24.30;57.50
20081;DHT22;10200;49.232;9.222;2023-08-08T08:49:58;24.40;55.60
20081;DHT22;10200;49.232;9.222;2023-08-08T08:52:26;24.50;54.60
20081;DHT22;10200;49.232;9.222;2023-08-08T08:54:54;24.30;54.60
20081;DHT22;10200;49.232;9.222;2023-08-08T08:57:21;24.10;54.80
20081;DHT22;10200;49.232;9.222;2023-08-08T08:59:49;23.90;55.10
20081;DHT22;10200;49.232;9.222;2023-08-08T09:02:15;23.80;55.50
20081;DHT22;10200;49.232;9.222;2023-08-08T09:04:40;23.60;55.40
20081;DHT22;10200;49.232;9.222;2023-08-08T09:07:07;23.60;56.60
20081;DHT22;10200;49.232;9.222;2023-08-08T09:09:33;23.80;56.70
20081;DHT22;10200;49.232;9.222;2023-08-08T09:12:01;23.90;56.70
20081;DHT22;10200;49.232;9.222;2023-08-08T09:14:26;23.90;56.60
20081;DHT22;10200;49.232;9.222;2023-08-08T09:16:55;24.10;56.60
20081;DHT22;10200;49.232;9.222;2023-08-08T09:19:22;24.30;57.40
20081;DHT22;10200;49.232;9.222;2023-08-08T09:21:49;24.70;56.60
20081;DHT22;10200;49.232;9.222;2023-08-08T09:24:15;24.90;55.70
20081;DHT22;10200;49.232;9.222;2023-08-08T09:26:42;25.10;56.20
20081;DHT22;10200;49.232;9.222;2023-08-08T09:29:08;25.10;55.10
20081;DHT22;10200;49.232;9.222;2023-08-08T09:31:34;25.00;55.20
20081;DHT22;10200;49.232;9.222;2023-08-08T09:34:02;24.90;56.60
20081;DHT22;10200;49.232;9.222;2023-08-08T09:36:28;24.90;56.30
20081;DHT22;10200;49.232;9.222;2023-08-08T09:38:54;24.90;56.10
20081;DHT22;10200;49.232;9.222;2023-08-08T09:41:22;24.70;55.30
20081;DHT22;10200;49.232;9.222;2023-08-08T09:43:49;24.70;55.90
20081;DHT22;10200;49.232;9.222;2023-08-08T09:46:15;24.80;55.70
20081;DHT22;10200;49.232;9.222;2023-08-08T09:48:43;25.10;56.60
20081;DHT22;10200;49.232;9.222;2023-08-08T09:51:09;25.00;55.30
20081;DHT22;10200;49.232;9.222;2023-08-08T09:53:35;25.00;54.80
20081;DHT22;10200;49.232;9.222;2023-08-08T09:56:03;24.90;54.70
20081;DHT22;10200;49.232;9.222;2023-08-08T09:58:29;24.90;55.40
20081;DHT22;10200;49.232;9.222;2023-08-08T10:00:54;24.90;54.80
20081;DHT22;10200;49.232;9.222;2023-08-08T10:03:20;24.70;54.00
20081;DHT22;10200;49.232;9.222;2023-08-08T10:05:46;24.80;56.10
20081;DHT22;10200;49.232;9.222;2023-08-08T10:08:15;25.30;56.50
20081;DHT22;10200;49.232;9.222;2023-08-08T10:10:42;25.60;53.70
20081;DHT22;10200;49.232;9.222;2023-08-08T10:13:10;25.60;53.10
20081;DHT22;10200;49.232;9.222;2023-08-08T10:15:39;25.30;51.90
20081;DHT22;10200;49.232;9.222;2023-08-08T10:18:06;25.30;53.30
20081;DHT22;10200;49.232;9.222;2023-08-08T10:20:32;25.30;53.50
20081;DHT22;10200;49.232;9.222;2023-08-08T10:22:59;25.40;53.00
20081;DHT22;10200;49.232;9.222;2023-08-08T10:25:29;25.20;52.80
20081;DHT22;10200;49.232;9.222;2023-08-08T10:28:08;24.90;52.50
20081;DHT22;10200;49.232;9.222;2023-08-08T10:30:57;25.00;54.30
20081;DHT22;10200;49.232;9.222;2023-08-08T10:33:23;25.00;52.40
20081;DHT22;10200;49.232;9.222;2023-08-08T10:38:38;25.10;52.80
20081;DHT22;10200;49.232;9.222;2023-08-08T10:41:05;25.30;53.20
20081;DHT22;10200;49.232;9.222;2023-08-08T10:43:33;25.40;53.90
20081;DHT22;10200;49.232;9.222;2023-08-08T10:46:03;25.30;53.10
20081;DHT22;10200;49.232;9.222;2023-08-08T10:48:29;25.20;52.00
20081;DHT22;10200;49.232;9.222;2023-08-08T10:50:57;25.00;52.50
20081;DHT22;10200;49.232;9.222;2023-08-08T10:53:27;24.90;53.20
20081;DHT22;10200;49.232;9.222;2023-08-08T10:56:03;24.90;52.50
20081;DHT22;10200;49.232;9.222;2023-08-08T10:58:40;24.80;53.30
20081;DHT22;10200;49.232;9.222;2023-08-08T11:01:06;24.90;53.30
20081;DHT22;10200;49.232;9.222;2023-08-08T11:03:41;25.00;54.00
20081;DHT22;10200;49.232;9.222;2023-08-08T11:06:08;25.10;53.30
20081;DHT22;10200;49.232;9.222;2023-08-08T11:08:34;25.10;52.70
20081;DHT22;10200;49.232;9.222;2023-08-08T11:11:02;25.20;52.80
20081;DHT22;10200;49.232;9.222;2023-08-08T11:13:28;25.20;53.80
20081;DHT22;10200;49.232;9.222;2023-08-08T11:15:54;25.30;52.40
20081;DHT22;10200;49.232;9.222;2023-08-08T11:18:20;25.30;52.30
20081;DHT22;10200;49.232;9.222;2023-08-08T11:20:47;25.40;52.70
20081;DHT22;10200;49.232;9.222;2023-08-08T11:23:14;25.30;52.10
20081;DHT22;10200;49.232;9.222;2023-08-08T11:25:41;25.30;52.00
20081;DHT22;10200;49.232;9.222;2023-08-08T11:28:08;25.20;52.10
20081;DHT22;10200;49.232;9.222;2023-08-08T11:30:36;25.10;52.40
20081;DHT22;10200;49.232;9.222;2023-08-08T11:33:02;25.00;52.30
20081;DHT22;10200;49.232;9.222;2023-08-08T11:35:28;25.10;52.40
20081;DHT22;10200;49.232;9.222;2023-08-08T11:37:56;24.90;51.10
20081;DHT22;10200;49.232;9.222;2023-08-08T11:40:24;24.70;51.10
20081;DHT22;10200;49.232;9.222;2023-08-08T11:42:51;24.80;52.60
20081;DHT22;10200;49.232;9.222;2023-08-08T11:45:17;24.70;52.30
20081;DHT22;10200;49.232;9.222;2023-08-08T11:47:43;24.80;52.80
20081;DHT22;10200;49.232;9.222;2023-08-08T11:50:10;24.70;51.50
20081;DHT22;10200;49.232;9.222;2023-08-08T11:52:41;24.60;52.00
20081;DHT22;10200;49.232;9.222;2023-08-08T11:55:08;24.50;52.20
20081;DHT22;10200;49.232;9.222;2023-08-08T11:57:38;24.50;52.50
20081;DHT22;10200;49.232;9.222;2023-08-08T12:00:08;24.50;52.20
20081;DHT22;10200;49.232;9.222;2023-08-08T12:02:35;24.40;53.10
20081;DHT22;10200;49.232;9.222;2023-08-08T12:05:08;24.50;53.20
20081;DHT22;10200;49.232;9.222;2023-08-08T12:07:35;24.50;52.40
20081;DHT22;10200;49.232;9.222;2023-08-08T12:10:03;24.50;52.40
20081;DHT22;10200;49.232;9.222;2023-08-08T12:12:30;24.50;51.90
20081;DHT22;10200;49.232;9.222;2023-08-08T12:14:57;24.50;51.70
20081;DHT22;10200;49.232;9.222;2023-08-08T12:17:23;24.50;51.10
20081;DHT22;10200;49.232;9.222;2023-08-08T12:19:49;24.40;51.20
20081;DHT22;10200;49.232;9.222;2023-08-08T12:22:14;24.50;51.10
20081;DHT22;10200;49.232;9.222;2023-08-08T12:24:40;24.40;49.90
20081;DHT22;10200;49.232;9.222;2023-08-08T12:27:06;24.30;51.10
20081;DHT22;10200;49.232;9.222;2023-08-08T12:29:32;24.40;50.70
20081;DHT22;10200;49.232;9.222;2023-08-08T12:31:57;24.30;50.40
20081;DHT22;10200;49.232;9.222;2023-08-08T12:34:23;24.30;50.70
20081;DHT22;10200;49.232;9.222;2023-08-08T12:36:49;24.40;50.90
20081;DHT22;10200;49.232;9.222;2023-08-08T12:39:14;24.50;51.50
20081;DHT22;10200;49.232;9.222;2023-08-08T12:41:40;24.50;50.50
20081;DHT22;10200;49.232;9.222;2023-08-08T12:44:06;24.60;52.00
20081;DHT22;10200;49.232;9.222;2023-08-08T12:46:33;24.80;51.90
20081;DHT22;10200;49.232;9.222;2023-08-08T12:48:59;25.00;51.40
20081;DHT22;10200;49.232;9.222;2023-08-08T12:51:24;25.00;50.50
20081;DHT22;10200;49.232;9.222;2023-08-08T12:53:50;25.10;50.30
20081;DHT22;10200;49.232;9.222;2023-08-08T12:56:16;25.00;49.90
20081;DHT22;10200;49.232;9.222;2023-08-08T12:58:41;25.10;50.00
20081;DHT22;10200;49.232;9.222;2023-08-08T13:01:07;25.20;50.20
20081;DHT22;10200;49.232;9.222;2023-08-08T13:03:33;25.30;48.80
20081;DHT22;10200;49.232;9.222;2023-08-08T13:05:59;25.50;48.70
20081;DHT22;10200;49.232;9.222;2023-08-08T13:08:25;25.70;49.70
20081;DHT22;10200;49.232;9.222;2023-08-08T13:10:51;25.90;49.30
20081;DHT22;10200;49.232;9.222;2023-08-08T13:13:16;26.00;48.30
20081;DHT22;10200;49.232;9.222;2023-08-08T13:15:42;25.90;48.30
20081;DHT22;10200;49.232;9.222;2023-08-08T13:18:08;25.80;48.20
20081;DHT22;10200;49.232;9.222;2023-08-08T13:20:34;25.60;48.50
20081;DHT22;10200;49.232;9.222;2023-08-08T13:22:59;25.50;47.60
20081;DHT22;10200;49.232;9.222;2023-08-08T13:25:25;25.60;48.20
20081;DHT22;10200;49.232;9.222;2023-08-08T13:27:51;25.80;48.60
20081;DHT22;10200;49.232;9.222;2023-08-08T13:30:16;25.80;47.60
20081;DHT22;10200;49.232;9.222;2023-08-08T13:32:42;25.80;47.80
20081;DHT22;10200;49.232;9.222;2023-08-08T13:35:08;25.90;47.00
20081;DHT22;10200;49.232;9.222;2023-08-08T13:37:34;25.80;47.90
20081;DHT22;10200;49.232;9.222;2023-08-08T13:39:59;25.60;48.10
20081;DHT22;10200;49.232;9.222;2023-08-08T13:42:25;25.40;48.30
20081;DHT22;10200;49.232;9.222;2023-08-08T13:44:50;25.20;48.70
20081;DHT22;10200;49.232;9.222;2023-08-08T13:47:16;25.20;48.40
20081;DHT22;10200;49.232;9.222;2023-08-08T13:49:42;25.10;48.70
20081;DHT22;10200;49.232;9.222;2023-08-08T13:52:08;25.00;48.40
20081;DHT22;10200;49.232;9.222;2023-08-08T13:54:34;25.00;48.80
20081;DHT22;10200;49.232;9.222;2023-08-08T13:57:00;25.00;49.30
20081;DHT22;10200;49.232;9.222;2023-08-08T13:59:26;24.90;48.30
20081;DHT22;10200;49.232;9.222;2023-08-08T14:01:52;24.90;48.40
20081;DHT22;10200;49.232;9.222;2023-08-08T14:04:17;24.90;48.40
20081;DHT22;10200;49.232;9.222;2023-08-08T14:06:44;25.00;48.40
20081;DHT22;10200;49.232;9.222;2023-08-08T14:09:10;25.00;48.40
20081;DHT22;10200;49.232;9.222;2023-08-08T14:11:36;25.10;47.60
20081;DHT22;10200;49.232;9.222;2023-08-08T14:14:01;25.10;48.40
20081;DHT22;10200;49.232;9.222;2023-08-08T14:16:27;25.10;48.00
20081;DHT22;10200;49.232;9.222;2023-08-08T14:18:52;25.10;48.10
20081;DHT22;10200;49.232;9.222;2023-08-08T14:21:18;25.20;48.40
20081;DHT22;10200;49.232;9.222;2023-08-08T14:23:45;25.10;47.50
20081;DHT22;10200;49.232;9.222;2023-08-08T14:26:12;25.10;48.10
20081;DHT22;10200;49.232;9.222;2023-08-08T14:28:38;25.30;48.70
20081;DHT22;10200;49.232;9.222;2023-08-08T14:31:03;25.40;48.70
20081;DHT22;10200;49.232;9.222;2023-08-08T14:33:32;25.40;48.50
20081;DHT22;10200;49.232;9.222;2023-08-08T14:35:57;25.40;49.40
20081;DHT22;10200;49.232;9.222;2023-08-08T14:38:24;25.50;47.80
20081;DHT22;10200;49.232;9.222;2023-08-08T14:40:51;25.30;46.70
20081;DHT22;10200;49.232;9.222;2023-08-08T14:43:18;25.20;46.20
20081;DHT22;10200;49.232;9.222;2023-08-08T14:45:44;25.10;46.20
20081;DHT22;10200;49.232;9.222;2023-08-08T14:48:09;25.00;46.70
20081;DHT22;10200;49.232;9.222;2023-08-08T14:50:35;25.00;47.90
20081;DHT22;10200;49.232;9.222;2023-08-08T14:53:01;24.90;46.60
20081;DHT22;10200;49.232;9.222;2023-08-08T14:55:26;24.90;46.50
20081;DHT22;10200;49.232;9.222;2023-08-08T14:57:52;24.90;47.50
20081;DHT22;10200;49.232;9.222;2023-08-08T15:00:18;24.90;47.10
20081;DHT22;10200;49.232;9.222;2023-08-08T15:02:43;24.90;47.00
20081;DHT22;10200;49.232;9.222;2023-08-08T15:05:09;24.90;46.70
20081;DHT22;10200;49.232;9.222;2023-08-08T15:07:34;25.00;46.50
20081;DHT22;10200;49.232;9.222;2023-08-08T15:10:00;25.00;47.10
20081;DHT22;10200;49.232;9.222;2023-08-08T15:12:25;25.10;47.00
20081;DHT22;10200;49.232;9.222;2023-08-08T15:14:51;25.10;46.40
20081;DHT22;10200;49.232;9.222;2023-08-08T15:17:17;25.10;46.60
20081;DHT22;10200;49.232;9.222;2023-08-08T15:19:42;25.10;46.90
20081;DHT22;10200;49.232;9.222;2023-08-08T15:22:08;25.10;47.00
20081;DHT22;10200;49.232;9.222;2023-08-08T15:24:33;25.10;47.20
20081;DHT22;10200;49.232;9.222;2023-08-08T15:27:01;25.10;47.10